This is the latest recevied weather packets stored in our database for station/object BMCB-21. If no packets are shown the sender has not sent any weather packets the latest 10 day(s).
| Time | Temp. | Humidity | Pressure | Rain* | Wind** | Luminosity | Snow |
|---|---|---|---|---|---|---|---|
| 1777791037 | 15.56° C | 82% | 1010.5 hPa | 0 mm | - | 92 W/m² | - |
| 1777767044 | 13.33° C | 92% | 1011.9 hPa | 0 mm | - | 0 W/m² | - |
| 1777765848 | 12.78° C | 91% | 1012 hPa | 0 mm | - | 0 W/m² | - |
| 1777759247 | 15° C | 85% | 1012.2 hPa | 0 mm | - | 0 W/m² | - |
| 1777746621 | 21.67° C | 61% | 1012.5 hPa | 0 mm | - | 7 W/m² | - |
| 1777743647 | 23.33° C | 55% | 1012.5 hPa | 0 mm | - | 88 W/m² | - |
| 1777734020 | 25° C | 52% | 1014.1 hPa | 0 mm | - | 360 W/m² | - |
| 1777733417 | 24.44° C | 54% | 1014.3 hPa | 0 mm | - | 371 W/m² | - |
| 1777731645 | 23.33° C | 56% | 1015 hPa | 0 mm | - | 238 W/m² | - |
| 1777726247 | 23.33° C | 56% | 1016.2 hPa | 0 mm | - | 473 W/m² | - |
| 1777725022 | 22.22° C | 66% | 1016.5 hPa | 0 mm | - | 537 W/m² | - |
| 1777718421 | 22.22° C | 61% | 1017.4 hPa | 0 mm | - | 255 W/m² | - |
| 1777714847 | 22.22° C | 62% | 1017.7 hPa | 0 mm | - | 520 W/m² | - |
| 1777713021 | 21.67° C | 63% | 1017.9 hPa | 0 mm | - | 442 W/m² | - |
| 1777707042 | 17.22° C | 75% | 1018.4 hPa | 0 mm | - | 296 W/m² | - |
| 1777704622 | 15° C | 82% | 1018.7 hPa | 0 mm | - | 197 W/m² | - |
| 1777702839 | 13.89° C | 83% | 1018.7 hPa | 0 mm | - | 78 W/m² | - |
| 1777675845 | 6.67° C | 86% | 1020.4 hPa | 0 mm | - | 0 W/m² | - |
| 1777669846 | 8.89° C | 77% | 1020.8 hPa | 0 mm | - | 0 W/m² | - |
| 1777665050 | 12.22° C | 64% | 1020.5 hPa | 0 mm | - | 0 W/m² | - |
| 1777664453 | 12.78° C | 63% | 1020.5 hPa | 0 mm | - | 0 W/m² | - |
| 1777662050 | 16.67° C | 49% | 1020.1 hPa | 0 mm | - | 0 W/m² | - |
| 1777657220 | 22.78° C | 24% | 1019.7 hPa | 0 mm | - | 31 W/m² | - |
| 1777652420 | 23.89° C | 24% | 1019.9 hPa | 0 mm | - | 238 W/m² | - |
| 1777647647 | 23.89° C | 25% | 1020.4 hPa | 0 mm | - | 394 W/m² | - |
* Rain latest hour (hover to see other rain measurements)
** Current wind speed in m/s (hover to see current wind gust speed)